KLYV

Quentin Aanenson Field Airport

Luverne, Minnesota, USA
METAR KLYV 212155Z AUTO 06010G16KT 10SM SCT065 SCT110 20/13 A2992 RMK AO2
Observed Flight Rules
Jun-21 @ 21:55 UTC (10 minutes ago) Visual Flight Rules
Wind Visibility Clouds
60° at 10 knots
 Gusting to 16 knots
10 miles
  • Scattered at 6,500' AGL
  • Scattered at 11,000' AGL
Temperatures Readings
Current 20°C / 68°F
Dewpoint 13°C / 55°F
Humidity 64%
Altimeter 29.92" Hg
Pressure 1013 hPa
Elevation 436
METAR KLYV 212155Z AUTO 06010G16KT 10SM SCT065 SCT110 20/13 A2992 RMK AO2
Observed Flight Rules
Jun-21 @ 21:55 UTC
(10 minutes ago)
VFR
Wind Visibility
60° at 10 knots
 Gusting to 16 knots
10 miles
Clouds
  • Scattered at 6,500' AGL
  • Scattered at 11,000' AGL
Temperature Dewpoint
20°C / 68°F 13°C / 55°F
Humidity Altimeter Pressure
64% 29.92" Hg 1013 hPa